메인 페이지
METAR-TAF:

METAR-TAF

공항 :

Fort Sill, 오클라호마, 미국

위도: 34-36N, 경도: 098-24W, 고도: 362m

현재 날씨관측

예보는 34분 전, 14:56시(UTC)에 발표되었습니다.
무풍
온도 6°C
습도 70%
기압 1022 hPa
시정: 16.1km
맑음

METAR: KFSI 241456Z AUTO 00000KT 10SM CLR 06/01 A3019 RMK AO2 SLP226 T00580008 55006 $

시각: 10:30 (15:30 UTC)

예보

예보는 18 시간 30분 전, 21:00시(UTC)에 발표되었습니다.
예보 대상 시간: 23일 21시부터 25일 03시까지 (UTC)
20kt, 순간 최대 풍속 25kt
시정 10km 이상
고도 2300ft 상공 구름 많음
전환 중
23일 22시부터 23일 23시까지 (UTC)
20kt, 순간 최대 풍속 25kt
시정 10km 이상
고도 3000ft 상공 구름 많음
전환 중
24일 00시부터 24일 01시까지 (UTC)
9kt
시정: 2613m
고도 3000ft 상공 구름 많음

TAF: KFSI 232100Z 2321/2503 36020G25KT 9999 BKN023 QNH3023INS BECMG 2322/2323 01020G25KT 9999 BKN030 QNH3025INS BECMG 2400/2401 01009KT 9999 BKN030 QNH2994INS TX13/2421Z TN04/2413Z LAST NO AMDS AFT 2403 NEXT 2613

4,000개 이상의 공항 관측 자료 및 예보 (METAR 및 TAF 보고).

지도상에서 검색 가능한 기상관측소가 노란 점과 빨간 점으로 표시되어 있습니다.

기상관측소 명을 보려면 표시 위로 마우스를 이동하세요.

날씨 관측과 예보를 보려면 클릭하세요.

지도 변경 : 확대하려면 엑스 표시가 있는 녹색 버튼, 축소하려면 빼기 표시가 있는 녹색 버튼, 다음 페이지의 지도를 보려면 녹색 화살표를 클릭하세요.


METAR-TAF: